Time;durP1;ratioP1;P1;durP2;ratioP2;P2;SDS_P1;SDS_P2;PMS_P1;PMS_P2;Temp;Humidity;BMP_temperature;BMP_pressure;BME280_temperature;BME280_humidity;BME280_pressure;Samples;Min_cycle;Max_cycle;Signal;HPM_P1;HPM_P2
2022/08/12 00:44:41;;;;;;;30.05;28.05;;;26.30;38.10;;;;;;5030517;28;20033;-80
2022/08/12 00:47:08;;;;;;;31.35;28.65;;;26.20;38.00;;;;;;5031832;28;20073;-80
2022/08/12 00:49:34;;;;;;;31.25;29.15;;;26.20;37.90;;;;;;5052397;28;20052;-80
2022/08/12 00:52:10;;;;;;;30.80;28.52;;;26.10;37.80;;;;;;5052120;28;20028;-80
2022/08/12 00:54:45;;;;;;;29.83;27.65;;;26.10;38.00;;;;;;5036542;28;20518;-80
2022/08/12 00:57:19;;;;;;;30.10;27.85;;;26.10;38.00;;;;;;5051520;28;20033;-80
2022/08/12 01:00:11;;;;;;;29.92;27.83;;;26.10;37.90;;;;;;5052030;28;20104;-80
2022/08/12 01:02:39;;;;;;;29.63;27.45;;;26.10;37.60;;;;;;5030003;28;20030;-80
2022/08/12 01:13:31;;;;;;;29.73;27.63;;;26.00;36.70;;;;;;5058359;28;20199;-80
2022/08/12 01:16:01;;;;;;;28.63;26.88;;;25.90;36.70;;;;;;5050988;28;20032;-80
2022/08/12 01:18:29;;;;;;;29.52;27.55;;;25.90;36.50;;;;;;5035227;28;20041;-80
2022/08/12 01:21:02;;;;;;;29.52;27.23;;;25.90;36.50;;;;;;5035188;28;20418;-80
2022/08/12 01:23:52;;;;;;;29.58;27.48;;;25.90;36.60;;;;;;5034942;28;20045;-80
2022/08/12 01:26:22;;;;;;;28.75;26.83;;;25.80;36.90;;;;;;5051320;28;20025;-80
2022/08/12 01:28:54;;;;;;;29.80;27.50;;;25.70;37.30;;;;;;5051555;28;20029;-80
2022/08/12 01:31:20;;;;;;;29.35;26.92;;;25.70;37.40;;;;;;5033939;28;20033;-80
2022/08/12 01:34:06;;;;;;;28.48;26.50;;;25.70;37.90;;;;;;5051379;28;20096;-80
2022/08/12 01:36:40;;;;;;;29.08;27.05;;;25.70;38.20;;;;;;5034388;28;20223;-80
2022/08/12 01:39:06;;;;;;;29.98;27.30;;;25.70;38.60;;;;;;5051277;28;20039;-80
2022/08/12 01:41:38;;;;;;;30.23;28.30;;;25.70;39.10;;;;;;5050952;28;20025;-80
2022/08/12 01:44:04;;;;;;;30.27;28.17;;;25.60;39.20;;;;;;5043372;28;20045;-80
2022/08/12 01:46:37;;;;;;;29.00;26.80;;;25.60;39.40;;;;;;5026156;28;20052;-80
2022/08/12 01:49:16;;;;;;;28.02;26.27;;;25.50;39.40;;;;;;5050599;28;20044;-80
2022/08/12 01:51:42;;;;;;;28.83;26.88;;;25.40;39.60;;;;;;5051052;28;20051;-80
2022/08/12 01:54:13;;;;;;;30.73;28.63;;;25.50;39.70;;;;;;5052396;28;20407;-80
2022/08/12 01:57:04;;;;;;;28.77;26.50;;;25.50;39.60;;;;;;5050682;28;20234;-80
2022/08/12 01:59:58;;;;;;;30.10;27.73;;;25.30;39.80;;;;;;5050955;28;20021;-80
2022/08/12 02:02:39;;;;;;;29.90;27.60;;;25.30;39.90;;;;;;5050004;28;20040;-80
2022/08/12 02:11:31;;;;;;;26.95;24.95;;;25.30;39.50;;;;;;5048919;28;20052;-80
2022/08/12 02:14:23;;;;;;;27.30;25.23;;;25.20;40.30;;;;;;5050517;28;20026;-79
2022/08/12 02:17:11;;;;;;;27.05;24.40;;;25.10;41.00;;;;;;5032970;28;20044;-80
2022/08/12 02:19:59;;;;;;;27.40;24.77;;;25.10;41.30;;;;;;5050492;28;20029;-80
2022/08/12 02:22:26;;;;;;;27.25;24.73;;;25.00;41.30;;;;;;5033813;28;20045;-80
2022/08/12 02:24:55;;;;;;;26.90;24.77;;;25.00;42.20;;;;;;5051372;28;20033;-80
2022/08/12 02:27:21;;;;;;;28.08;25.90;;;25.00;42.40;;;;;;5033499;28;20518;-80
2022/08/12 02:29:47;;;;;;;27.67;25.23;;;25.00;42.70;;;;;;5033523;28;20048;-80
2022/08/12 02:32:14;;;;;;;27.13;25.33;;;24.90;42.40;;;;;;5049915;28;20399;-80
2022/08/12 02:34:40;;;;;;;28.63;26.85;;;24.90;41.20;;;;;;5033331;28;20543;-80
2022/08/12 02:37:07;;;;;;;27.35;25.65;;;24.90;40.80;;;;;;5050177;28;20037;-80
2022/08/12 02:39:34;;;;;;;27.60;25.60;;;24.80;40.80;;;;;;5033440;28;20041;-80
2022/08/12 02:42:03;;;;;;;27.20;24.88;;;24.80;41.10;;;;;;5033846;28;20040;-80
2022/08/12 02:44:30;;;;;;;26.70;25.00;;;24.80;41.70;;;;;;5022124;28;20400;-80
2022/08/12 02:46:56;;;;;;;25.90;24.08;;;24.70;41.30;;;;;;5008948;28;20044;-80
2022/08/12 02:49:30;;;;;;;25.05;23.38;;;24.80;40.80;;;;;;5013582;28;20601;-80
2022/08/12 02:51:58;;;;;;;26.20;23.85;;;24.70;40.70;;;;;;5013512;28;20381;-80
2022/08/12 02:54:25;;;;;;;26.23;24.17;;;24.70;41.30;;;;;;5030066;28;20029;-80
2022/08/12 02:56:51;;;;;;;26.65;24.42;;;24.60;41.20;;;;;;5030111;28;20051;-80
2022/08/12 02:59:20;;;;;;;25.98;23.85;;;24.60;41.30;;;;;;5030093;28;20030;-80
2022/08/12 03:01:52;;;;;;;24.88;23.00;;;24.60;41.90;;;;;;5012541;28;20030;-80
2022/08/12 03:04:39;;;;;;;24.40;22.63;;;24.50;41.80;;;;;;5013568;28;20045;-80
2022/08/12 03:07:18;;;;;;;24.05;22.55;;;24.50;41.70;;;;;;5029636;28;20496;-80
2022/08/12 03:09:48;;;;;;;26.17;24.10;;;24.50;41.70;;;;;;5012965;28;20484;-80
2022/08/12 03:12:16;;;;;;;25.10;23.20;;;24.40;41.90;;;;;;5013298;28;20042;-80
2022/08/12 03:14:42;;;;;;;24.67;23.02;;;24.40;42.00;;;;;;5013510;28;20036;-80
2022/08/12 03:17:33;;;;;;;24.17;22.60;;;24.40;42.00;;;;;;5012159;28;20040;-80
2022/08/12 03:19:59;;;;;;;24.55;22.60;;;24.30;41.80;;;;;;5013129;28;20033;-80
2022/08/12 03:22:25;;;;;;;24.02;22.70;;;24.30;41.90;;;;;;5029409;28;20041;-80
2022/08/12 03:24:51;;;;;;;24.98;23.48;;;24.20;41.40;;;;;;5013141;28;20052;-80
2022/08/12 03:27:18;;;;;;;23.73;22.33;;;24.00;41.30;;;;;;5012913;28;20480;-80
2022/08/12 03:29:48;;;;;;;24.00;22.50;;;23.80;41.60;;;;;;5033449;28;20025;-80
2022/08/12 03:32:14;;;;;;;23.38;21.88;;;23.60;41.90;;;;;;5033097;28;20033;-80
2022/08/12 03:34:41;;;;;;;22.65;21.05;;;23.30;43.00;;;;;;5017039;28;20048;-80
2022/08/12 03:37:09;;;;;;;21.80;20.60;;;23.20;42.80;;;;;;5034474;28;20380;-80
2022/08/12 03:42:09;;;;;;;22.90;21.13;;;23.10;43.00;;;;;;5055575;28;20033;-80
2022/08/12 04:01:39;;;;;;;21.75;20.38;;;23.30;42.50;;;;;;5054934;28;20060;-80
2022/08/12 04:04:07;;;;;;;22.52;21.13;;;23.10;42.80;;;;;;5036899;28;20045;-80
2022/08/12 04:06:34;;;;;;;22.27;20.98;;;23.30;42.60;;;;;;5052763;28;20475;-79
2022/08/12 04:09:00;;;;;;;22.08;20.33;;;23.30;42.30;;;;;;5053031;28;20032;-80
2022/08/12 04:14:21;;;;;;;21.67;20.08;;;23.50;42.20;;;;;;5053442;28;20044;-80
2022/08/12 04:16:47;;;;;;;22.48;21.15;;;23.50;42.30;;;;;;5052102;28;20037;-79
2022/08/12 04:19:14;;;;;;;21.85;20.55;;;23.50;42.10;;;;;;5036621;28;20491;-80
2022/08/12 04:21:40;;;;;;;21.85;20.65;;;23.50;42.10;;;;;;5052448;28;20036;-80
2022/08/12 04:24:06;;;;;;;22.35;21.05;;;23.50;42.40;;;;;;5052585;28;20052;-80
2022/08/12 04:26:34;;;;;;;23.50;21.45;;;23.20;42.80;;;;;;5035866;28;20033;-79
2022/08/12 04:29:00;;;;;;;21.95;20.52;;;23.10;43.00;;;;;;5052757;28;20037;-80
2022/08/12 04:31:38;;;;;;;22.58;20.85;;;23.10;43.30;;;;;;5035236;28;20052;-80
2022/08/12 04:34:06;;;;;;;22.33;21.02;;;23.00;43.30;;;;;;5034057;28;20045;-80
2022/08/12 04:36:33;;;;;;;22.08;20.48;;;23.00;43.30;;;;;;5051943;28;20357;-80
2022/08/12 04:38:59;;;;;;;21.48;19.98;;;23.00;43.50;;;;;;5035363;28;20045;-80
2022/08/12 04:41:26;;;;;;;20.80;19.63;;;23.00;43.50;;;;;;5052375;28;20032;-80
2022/08/12 04:43:52;;;;;;;22.20;20.52;;;22.80;43.70;;;;;;5046172;28;20025;-80
2022/08/12 04:46:19;;;;;;;21.40;19.92;;;22.80;43.90;;;;;;5009433;28;20124;-80
2022/08/12 04:48:45;;;;;;;20.92;19.60;;;22.70;44.10;;;;;;5035376;28;20056;-80
2022/08/12 04:51:12;;;;;;;21.33;19.92;;;22.60;44.50;;;;;;5051702;28;20468;-80
2022/08/12 04:53:41;;;;;;;20.02;18.83;;;22.30;45.00;;;;;;5052225;28;20494;-80
2022/08/12 04:56:09;;;;;;;20.85;19.55;;;22.30;45.10;;;;;;5035452;28;20506;-80
2022/08/12 04:58:36;;;;;;;21.30;19.90;;;22.20;45.20;;;;;;5052167;28;20040;-80
2022/08/12 05:01:02;;;;;;;20.98;19.40;;;22.20;45.30;;;;;;5051484;28;20030;-80
2022/08/12 05:03:28;;;;;;;20.52;19.25;;;22.10;45.40;;;;;;5051551;28;20033;-80
2022/08/12 05:05:57;;;;;;;20.20;18.67;;;22.10;45.40;;;;;;5051975;28;20437;-80
2022/08/12 05:08:25;;;;;;;21.15;19.75;;;22.20;45.40;;;;;;5035508;28;20033;-80
2022/08/12 05:10:51;;;;;;;20.35;19.05;;;22.10;45.40;;;;;;5051991;28;20035;-80
2022/08/12 05:13:23;;;;;;;20.38;18.77;;;22.00;45.70;;;;;;5035172;28;20033;-80
2022/08/12 05:15:49;;;;;;;20.42;19.05;;;21.90;46.00;;;;;;5034442;28;20021;-80
2022/08/12 05:18:15;;;;;;;18.27;17.27;;;21.90;46.20;;;;;;5051334;28;20032;-80
2022/08/12 05:20:44;;;;;;;19.30;18.00;;;21.70;46.40;;;;;;5051653;28;20492;-80
2022/08/12 05:23:14;;;;;;;18.90;17.50;;;21.70;46.50;;;;;;5051670;28;20435;-80
2022/08/12 05:25:41;;;;;;;20.15;18.30;;;21.80;46.50;;;;;;5052864;28;20479;-80
2022/08/12 05:28:08;;;;;;;18.65;17.42;;;21.70;46.60;;;;;;5034798;28;20384;-79
2022/08/12 05:30:34;;;;;;;19.95;18.17;;;21.80;46.60;;;;;;5050837;28;20028;-80
2022/08/12 05:33:04;;;;;;;20.17;18.88;;;21.90;46.20;;;;;;5034602;28;20104;-80
2022/08/12 05:35:41;;;;;;;20.13;18.58;;;22.10;45.90;;;;;;5034516;28;20037;-79
2022/08/12 05:40:56;;;;;;;20.48;19.00;;;22.10;45.70;;;;;;5034786;28;20037;-80
2022/08/12 05:43:22;;;;;;;19.98;18.55;;;22.20;45.60;;;;;;5016627;28;20029;-80
2022/08/12 05:45:48;;;;;;;20.30;18.80;;;22.10;45.80;;;;;;5034009;28;20037;-79
2022/08/12 05:48:14;;;;;;;21.15;19.52;;;22.10;45.80;;;;;;5050853;28;20479;-79
2022/08/12 05:50:41;;;;;;;21.45;20.10;;;22.20;45.60;;;;;;5033707;28;20104;-80
2022/08/12 05:53:07;;;;;;;21.08;19.55;;;22.40;45.50;;;;;;5050977;28;20040;-80
2022/08/12 05:55:34;;;;;;;21.50;19.85;;;22.40;45.10;;;;;;5034281;28;20487;-79
2022/08/12 05:58:01;;;;;;;21.40;19.92;;;22.40;45.40;;;;;;5034593;28;20032;-80
2022/08/12 06:00:30;;;;;;;20.50;19.27;;;22.50;45.10;;;;;;5033991;28;20040;-79
2022/08/12 06:02:59;;;;;;;21.13;19.77;;;22.50;45.20;;;;;;5034450;28;20037;-79
2022/08/12 06:05:35;;;;;;;21.48;19.95;;;22.60;45.00;;;;;;5034544;28;20044;-79
2022/08/12 06:08:06;;;;;;;21.63;20.42;;;22.70;44.80;;;;;;5050769;28;20029;-80
2022/08/12 06:10:33;;;;;;;22.10;20.60;;;22.80;44.40;;;;;;5034006;28;20048;-80
2022/08/12 06:13:01;;;;;;;21.75;20.40;;;22.80;44.50;;;;;;5034422;28;20036;-79
2022/08/12 06:15:27;;;;;;;22.42;21.20;;;22.90;44.30;;;;;;5049979;28;20032;-79
2022/08/12 06:17:54;;;;;;;23.42;21.83;;;23.10;43.80;;;;;;5017175;28;20037;-79
2022/08/12 06:20:20;;;;;;;24.10;22.40;;;23.20;43.80;;;;;;5034087;28;20032;-79
2022/08/12 06:22:49;;;;;;;23.88;22.35;;;23.40;43.40;;;;;;5017488;28;20041;-79
2022/08/12 06:25:17;;;;;;;25.40;23.70;;;23.50;43.10;;;;;;5034386;28;20048;-79
2022/08/12 06:27:46;;;;;;;25.38;23.83;;;23.70;43.50;;;;;;5050327;28;20018;-80
2022/08/12 06:30:15;;;;;;;26.48;24.98;;;23.90;42.40;;;;;;5048950;28;20021;-80
2022/08/12 06:32:43;;;;;;;27.58;25.92;;;24.10;42.20;;;;;;5049023;28;20069;-80
2022/08/12 06:35:10;;;;;;;26.63;25.08;;;24.30;41.70;;;;;;5043053;28;20029;-80
2022/08/12 06:37:40;;;;;;;27.55;25.65;;;24.20;41.40;;;;;;5030403;28;20034;-80
2022/08/12 06:40:09;;;;;;;27.50;26.00;;;24.20;41.40;;;;;;5045263;28;20029;-80
2022/08/12 06:42:47;;;;;;;27.33;25.38;;;24.40;41.00;;;;;;5050139;28;20028;-80
2022/08/12 06:45:20;;;;;;;27.27;25.58;;;24.50;40.60;;;;;;5033722;28;20519;-80
2022/08/12 06:47:46;;;;;;;28.42;26.25;;;24.60;40.40;;;;;;5051162;28;20404;-80
2022/08/12 06:50:15;;;;;;;28.20;26.60;;;24.60;40.20;;;;;;5049852;28;20025;-80
2022/08/12 06:52:42;;;;;;;27.27;25.58;;;24.70;40.20;;;;;;5051240;28;20021;-80
2022/08/12 06:55:14;;;;;;;28.20;26.60;;;24.70;39.90;;;;;;5049950;28;20040;-80
2022/08/12 06:57:54;;;;;;;29.63;27.98;;;24.80;40.00;;;;;;5033974;28;20499;-80
2022/08/12 07:00:24;;;;;;;28.10;26.60;;;25.00;39.80;;;;;;5032346;28;20033;-80
2022/08/12 07:02:51;;;;;;;29.92;27.42;;;25.10;39.30;;;;;;5049739;28;20356;-79
2022/08/12 07:05:23;;;;;;;30.10;28.17;;;25.10;39.40;;;;;;5049476;28;20514;-80
2022/08/12 07:07:58;;;;;;;31.10;29.35;;;25.30;39.10;;;;;;5034182;28;20033;-80
2022/08/12 07:10:27;;;;;;;29.55;27.33;;;25.20;39.00;;;;;;5050966;28;20033;-79
2022/08/12 07:13:00;;;;;;;29.88;28.25;;;25.20;39.30;;;;;;5033214;28;20063;-80
2022/08/12 07:15:28;;;;;;;29.10;27.48;;;25.30;39.40;;;;;;5048744;28;20051;-80
2022/08/12 07:18:06;;;;;;;29.80;28.00;;;25.50;38.70;;;;;;5049640;28;20025;-80
2022/08/12 07:20:34;;;;;;;31.55;29.50;;;25.60;38.60;;;;;;5034063;28;20049;-80
2022/08/12 07:23:02;;;;;;;30.88;28.92;;;25.80;38.50;;;;;;5049666;28;20032;-80
2022/08/12 07:25:31;;;;;;;32.20;29.80;;;25.80;38.00;;;;;;5049653;28;20040;-80
2022/08/12 07:28:00;;;;;;;32.78;30.70;;;25.90;38.00;;;;;;5049653;28;20025;-80
2022/08/12 07:30:29;;;;;;;33.50;31.40;;;26.00;37.70;;;;;;5032145;28;20029;-80
2022/08/12 07:32:56;;;;;;;33.42;31.50;;;26.10;37.80;;;;;;5049623;28;20025;-79
2022/08/12 07:35:22;;;;;;;32.38;30.38;;;26.30;37.50;;;;;;5049272;28;20033;-79
2022/08/12 07:37:49;;;;;;;34.53;32.72;;;26.40;37.50;;;;;;5049519;28;20503;-79
2022/08/12 07:40:15;;;;;;;34.15;32.15;;;26.50;37.80;;;;;;5049319;28;20037;-79
2022/08/12 07:42:42;;;;;;;35.97;33.95;;;26.60;37.00;;;;;;5049680;28;20410;-79
2022/08/12 07:45:11;;;;;;;38.55;36.08;;;26.80;36.60;;;;;;5016625;28;20061;-79
2022/08/12 07:47:40;;;;;;;37.28;35.00;;;27.10;36.60;;;;;;5032937;28;20048;-79
2022/08/12 07:50:08;;;;;;;38.88;36.63;;;27.40;35.50;;;;;;5049535;28;20072;-79
2022/08/12 07:52:34;;;;;;;37.00;34.90;;;27.40;35.50;;;;;;5032290;28;20040;-79
2022/08/12 07:55:01;;;;;;;35.67;33.67;;;27.60;35.10;;;;;;5049410;28;20036;-79
2022/08/12 07:57:27;;;;;;;36.63;34.55;;;27.60;34.80;;;;;;5032111;28;20045;-80
2022/08/12 07:59:53;;;;;;;38.92;36.70;;;27.60;34.90;;;;;;5049314;28;20021;-79
2022/08/12 08:02:19;;;;;;;1999.90;999.90;;;27.70;34.90;;;;;;5048880;28;20044;-79
2022/08/12 08:04:57;;;;;;;1999.90;999.90;;;27.90;34.60;;;;;;5050390;28;20041;-79
2022/08/12 08:07:24;;;;;;;1999.90;999.90;;;28.10;34.20;;;;;;5050207;28;20033;-79
2022/08/12 08:09:56;;;;;;;40.53;38.03;;;28.40;33.80;;;;;;5049286;28;20036;-79
2022/08/12 08:15:14;;;;;;;1999.90;999.90;;;28.50;33.40;;;;;;5057691;28;20054;-79
2022/08/12 08:17:40;;;;;;;1999.90;999.90;;;28.60;33.50;;;;;;5036216;28;20510;-79
2022/08/12 08:20:08;;;;;;;1999.90;999.90;;;28.70;33.00;;;;;;5052626;28;20033;-79
2022/08/12 08:22:37;;;;;;;1999.90;999.90;;;28.80;33.10;;;;;;5052643;28;20104;-80
2022/08/12 08:25:05;;;;;;;1999.90;999.90;;;28.80;33.10;;;;;;5036602;28;20049;-79
2022/08/12 08:27:47;;;;;;;1999.90;999.90;;;28.80;33.10;;;;;;5052595;28;20028;-79
2022/08/12 08:30:13;;;;;;;1999.90;999.90;;;28.90;33.00;;;;;;5034771;28;20048;-79
2022/08/12 08:32:39;;;;;;;1999.90;999.90;;;29.00;32.80;;;;;;5035660;28;20392;-79
2022/08/12 08:35:09;;;;;;;1999.90;999.90;;;29.10;32.50;;;;;;5052516;28;20033;-79
2022/08/12 08:37:36;;;;;;;1999.90;999.90;;;29.20;32.00;;;;;;5052497;28;20025;-79
2022/08/12 08:42:35;;;;;;;1999.90;999.90;;;29.10;32.00;;;;;;5039182;28;20029;-79
2022/08/12 08:43:00;;;;;;;1999.90;999.90;;;29.20;32.50;;;;;;5033438;28;20144;-79
2022/08/12 08:45:27;;;;;;;1999.90;999.90;;;29.20;32.10;;;;;;5050617;28;20032;-79
2022/08/12 08:47:53;;;;;;;1999.90;999.90;;;29.40;32.50;;;;;;5035600;28;20396;-79
2022/08/12 08:50:19;;;;;;;1999.90;999.90;;;29.60;32.40;;;;;;5036042;28;20367;-79
2022/08/12 08:52:46;;;;;;;1999.90;999.90;;;29.70;32.30;;;;;;5052137;28;20227;-79
2022/08/12 08:55:12;;;;;;;1999.90;999.90;;;29.90;31.50;;;;;;5019053;28;20039;-79
2022/08/12 08:57:39;;;;;;;1999.90;999.90;;;30.10;31.70;;;;;;5052121;28;20036;-79
2022/08/12 09:00:06;;;;;;;1999.90;999.90;;;30.30;31.20;;;;;;5035131;28;20036;-79
2022/08/12 09:02:32;;;;;;;1999.90;999.90;;;30.40;30.90;;;;;;5052090;28;20044;-79
2022/08/12 09:04:58;;;;;;;1999.90;999.90;;;30.60;29.90;;;;;;5051971;28;20033;-79
2022/08/12 09:07:26;;;;;;;1999.90;999.90;;;30.60;29.60;;;;;;5035530;28;20573;-79
2022/08/12 09:09:54;;;;;;;1999.90;999.90;;;30.70;29.80;;;;;;5051809;28;20032;-80
2022/08/12 09:15:06;;;;;;;1999.90;999.90;;;30.90;29.30;;;;;;5038636;28;20029;-79
2022/08/12 09:17:33;;;;;;;1999.90;999.90;;;30.90;29.50;;;;;;5052884;28;20460;-79
2022/08/12 09:19:59;;;;;;;1999.90;999.90;;;31.00;28.90;;;;;;5035198;28;20483;-79
2022/08/12 09:22:25;;;;;;;1999.90;999.90;;;31.00;28.90;;;;;;5051732;28;20021;-80
2022/08/12 09:24:51;;;;;;;1999.90;999.90;;;31.00;28.90;;;;;;5050896;28;20032;-80
2022/08/12 09:27:17;;;;;;;1999.90;999.90;;;31.10;28.80;;;;;;5034179;28;20396;-79
2022/08/12 09:29:44;;;;;;;1999.90;999.90;;;31.20;28.70;;;;;;5035025;28;20025;-79
2022/08/12 09:32:12;;;;;;;1999.90;999.90;;;31.40;28.80;;;;;;5018120;28;20033;-79
2022/08/12 09:34:38;;;;;;;1999.90;999.90;;;31.40;28.10;;;;;;5034952;28;20028;-79
2022/08/12 09:37:04;;;;;;;1999.90;999.90;;;31.60;28.50;;;;;;5051471;28;20039;-79
2022/08/12 09:39:30;;;;;;;1999.90;999.90;;;31.70;27.50;;;;;;5033961;28;20048;-79
2022/08/12 09:47:28;;;;;;;1999.90;999.90;;;32.10;27.40;;;;;;5036238;28;20048;-79
2022/08/12 09:49:54;;;;;;;1999.90;999.90;;;32.20;26.70;;;;;;5051182;28;20383;-79
2022/08/12 09:52:21;;;;;;;1999.90;999.90;;;32.20;27.10;;;;;;5051337;28;20051;-80
2022/08/12 09:54:47;;;;;;;1999.90;999.90;;;32.30;26.50;;;;;;5050544;28;20383;-79
2022/08/12 09:57:18;;;;;;;1999.90;999.90;;;32.20;26.70;;;;;;5050723;28;20037;-79
2022/08/12 09:59:44;;;;;;;1999.90;999.90;;;32.40;26.60;;;;;;5051023;28;20472;-79
2022/08/12 10:02:11;;;;;;;1999.90;999.90;;;32.50;25.90;;;;;;5050494;28;20037;-80
2022/08/12 10:04:45;;;;;;;1999.90;999.90;;;32.50;26.60;;;;;;5050775;28;20033;-80
2022/08/12 10:07:11;;;;;;;1999.90;999.90;;;32.80;25.80;;;;;;5035055;28;20041;-79
2022/08/12 10:09:37;;;;;;;1999.90;999.90;;;32.90;25.70;;;;;;5050445;28;20055;-79
2022/08/12 10:14:48;;;;;;;1999.90;999.90;;;33.10;25.40;;;;;;5054680;28;20036;-79
2022/08/12 10:17:16;;;;;;;1999.90;999.90;;;32.90;25.60;;;;;;5049883;28;20492;-79
2022/08/12 10:19:42;;;;;;;1999.90;999.90;;;33.00;25.20;;;;;;5034541;28;20033;-79
2022/08/12 10:22:08;;;;;;;1999.90;999.90;;;33.20;24.70;;;;;;5033929;28;20502;-80
2022/08/12 10:24:34;;;;;;;1999.90;999.90;;;33.20;24.40;;;;;;5050090;28;20040;-79
2022/08/12 10:29:46;;;;;;;1999.90;999.90;;;33.40;23.90;;;;;;5051783;28;20085;-80
2022/08/12 10:32:16;;;;;;;1999.90;999.90;;;33.30;23.80;;;;;;5050111;28;20037;-80
2022/08/12 10:34:42;;;;;;;1999.90;999.90;;;33.00;23.60;;;;;;5050285;28;20029;-80
2022/08/12 10:37:08;;;;;;;1999.90;999.90;;;33.00;24.30;;;;;;5049578;28;20056;-80
2022/08/12 10:39:36;;;;;;;1999.90;999.90;;;33.10;23.70;;;;;;5033859;28;20036;-79
2022/08/12 10:44:59;;;;;;;1999.90;999.90;;;33.20;23.90;;;;;;5039543;28;20033;-79
2022/08/12 10:47:27;;;;;;;1999.90;999.90;;;33.40;23.30;;;;;;5033389;28;20053;-80
2022/08/12 10:49:53;;;;;;;1999.90;999.90;;;33.50;24.00;;;;;;5049878;28;20040;-79
2022/08/12 10:52:23;;;;;;;1999.90;999.90;;;33.60;23.90;;;;;;5049953;28;20033;-80
2022/08/12 10:54:50;;;;;;;1999.90;999.90;;;33.70;23.30;;;;;;5050103;28;20044;-79
2022/08/12 10:57:16;;;;;;;1999.90;999.90;;;33.80;23.60;;;;;;5033364;28;20399;-80
2022/08/12 10:59:43;;;;;;;1999.90;999.90;;;33.70;23.40;;;;;;5050074;28;20032;-80
2022/08/12 11:02:12;;;;;;;1999.90;999.90;;;33.90;23.80;;;;;;5032694;28;20033;-80
2022/08/12 11:04:39;;;;;;;1999.90;999.90;;;34.10;23.20;;;;;;5050018;28;20463;-80
2022/08/12 11:07:06;;;;;;;1999.90;999.90;;;34.20;22.90;;;;;;5050666;28;20053;-80
2022/08/12 11:09:33;;;;;;;1999.90;999.90;;;34.30;23.00;;;;;;5049901;28;20029;-79
2022/08/12 11:12:06;;;;;;;1999.90;999.90;;;34.50;23.00;;;;;;5050864;28;20032;-79
2022/08/12 11:14:33;;;;;;;1999.90;999.90;;;34.50;22.70;;;;;;5049955;28;20032;-80
2022/08/12 11:17:00;;;;;;;1999.90;999.90;;;34.20;22.70;;;;;;5049288;28;20396;-80
2022/08/12 11:19:27;;;;;;;1999.90;999.90;;;34.30;22.70;;;;;;5049658;28;20585;-80
2022/08/12 11:21:54;;;;;;;1999.90;999.90;;;34.20;22.60;;;;;;5049456;28;20037;-79
2022/08/12 11:24:21;;;;;;;1999.90;999.90;;;34.20;22.60;;;;;;5049815;28;20443;-80
2022/08/12 11:26:49;;;;;;;1999.90;999.90;;;34.20;22.60;;;;;;5032664;28;20514;-79
2022/08/12 11:29:24;;;;;;;1999.90;999.90;;;34.10;22.40;;;;;;5049683;28;20029;-80
2022/08/12 11:31:50;;;;;;;1999.90;999.90;;;34.00;22.40;;;;;;5032316;28;20077;-80
2022/08/12 11:34:16;;;;;;;1999.90;999.90;;;34.20;22.40;;;;;;5049569;28;20029;-79
2022/08/12 11:37:01;;;;;;;1999.90;999.90;;;34.30;22.50;;;;;;5049190;28;20056;-79
2022/08/12 11:39:27;;;;;;;1999.90;999.90;;;34.20;22.20;;;;;;5040908;28;20025;-80
2022/08/12 11:41:53;;;;;;;1999.90;999.90;;;34.30;22.30;;;;;;5013146;28;20022;-80
2022/08/12 11:44:19;;;;;;;1999.90;999.90;;;34.50;22.70;;;;;;5019506;28;20033;-80
2022/08/12 11:46:45;;;;;;;1999.90;999.90;;;34.60;22.00;;;;;;5042861;28;20053;-80
2022/08/12 11:49:11;;;;;;;1999.90;999.90;;;34.60;22.10;;;;;;5050800;28;20041;-80
2022/08/12 11:51:38;;;;;;;1999.90;999.90;;;34.30;21.90;;;;;;5053132;28;20029;-79
2022/08/12 11:54:04;;;;;;;1999.90;999.90;;;34.20;22.00;;;;;;5053316;28;20036;-80
2022/08/12 11:56:30;;;;;;;1999.90;999.90;;;34.30;21.90;;;;;;5053271;28;20100;-80
2022/08/12 11:58:56;;;;;;;1999.90;999.90;;;34.50;21.90;;;;;;5054760;28;20036;-80
2022/08/12 12:01:23;;;;;;;1999.90;999.90;;;34.60;21.70;;;;;;5035971;28;20033;-80
2022/08/12 12:03:49;;;;;;;1999.90;999.90;;;34.70;22.10;;;;;;5036479;28;20044;-80
2022/08/12 12:06:16;;;;;;;1999.90;999.90;;;34.80;21.50;;;;;;5036088;28;20049;-80
2022/08/12 12:08:43;;;;;;;1999.90;999.90;;;34.90;21.40;;;;;;5053129;28;20052;-80
2022/08/12 12:11:09;;;;;;;1999.90;999.90;;;34.90;21.70;;;;;;5036194;28;20041;-80
2022/08/12 12:13:35;;;;;;;1999.90;999.90;;;34.90;21.70;;;;;;5035995;28;20044;-80
2022/08/12 12:16:01;;;;;;;1999.90;999.90;;;34.80;21.60;;;;;;5052300;28;20395;-80
2022/08/12 12:18:31;;;;;;;1999.90;999.90;;;35.10;21.70;;;;;;5035690;28;20120;-80
2022/08/12 12:20:58;;;;;;;1999.90;999.90;;;35.40;21.20;;;;;;5036064;28;20036;-80
2022/08/12 12:23:25;;;;;;;1999.90;999.90;;;35.60;21.80;;;;;;5036151;28;20039;-80
2022/08/12 12:25:51;;;;;;;1999.90;999.90;;;35.50;21.10;;;;;;5052783;28;20037;-80
2022/08/12 12:28:17;;;;;;;1999.90;999.90;;;35.50;21.30;;;;;;5052537;28;20029;-80
2022/08/12 12:30:43;;;;;;;1999.90;999.90;;;35.40;21.10;;;;;;5052050;28;20028;-80
2022/08/12 12:33:10;;;;;;;1999.90;999.90;;;35.50;21.20;;;;;;5053597;28;20029;-80
2022/08/12 12:35:36;;;;;;;1999.90;999.90;;;35.40;21.00;;;;;;5035896;28;20403;-80
2022/08/12 12:38:04;;;;;;;1999.90;999.90;;;35.40;21.30;;;;;;5035850;28;20037;-80
2022/08/12 12:40:31;;;;;;;1999.90;999.90;;;35.20;21.30;;;;;;5052353;28;20032;-80
2022/08/12 12:42:57;;;;;;;1999.90;999.90;;;35.30;21.10;;;;;;5052341;28;20035;-80
2022/08/12 12:45:24;;;;;;;1999.90;999.90;;;35.60;21.40;;;;;;5035972;28;20041;-80
2022/08/12 12:48:04;;;;;;;1999.90;999.90;;;35.70;20.90;;;;;;5051871;28;20060;-80
2022/08/12 12:50:32;;;;;;;1999.90;999.90;;;35.80;20.10;;;;;;5052335;28;20032;-80
2022/08/12 12:52:58;;;;;;;1999.90;999.90;;;35.70;20.20;;;;;;5035796;28;20518;-80
2022/08/12 12:55:24;;;;;;;1999.90;999.90;;;35.70;20.60;;;;;;5035737;28;20037;-80
2022/08/12 12:57:50;;;;;;;1999.90;999.90;;;35.80;21.30;;;;;;5035336;28;20492;-80
2022/08/12 13:00:17;;;;;;;1999.90;999.90;;;35.60;20.70;;;;;;5035188;28;20040;-80
2022/08/12 13:02:56;;;;;;;1999.90;999.90;;;35.40;20.60;;;;;;5034990;28;20041;-80
2022/08/12 13:05:24;;;;;;;1999.90;999.90;;;35.50;21.00;;;;;;5051993;28;20029;-80
2022/08/12 13:07:54;;;;;;;1999.90;999.90;;;35.90;20.50;;;;;;5035395;28;20056;-80
2022/08/12 13:10:22;;;;;;;1999.90;999.90;;;36.10;20.50;;;;;;5052067;28;20037;-80
2022/08/12 13:12:49;;;;;;;1999.90;999.90;;;36.10;20.60;;;;;;5035405;28;20040;-80
2022/08/12 13:15:15;;;;;;;1999.90;999.90;;;36.10;20.60;;;;;;5050973;28;20033;-80
2022/08/12 13:17:49;;;;;;;1999.90;999.90;;;36.10;20.70;;;;;;5034896;28;20048;-80
2022/08/12 13:20:16;;;;;;;1999.90;999.90;;;35.90;20.50;;;;;;5035194;28;20040;-80
2022/08/12 13:22:43;;;;;;;1999.90;999.90;;;36.00;20.30;;;;;;5034956;28;20048;-80
2022/08/12 13:25:09;;;;;;;1999.90;999.90;;;36.00;20.70;;;;;;5035464;28;20033;-80
2022/08/12 13:27:40;;;;;;;1999.90;999.90;;;36.00;20.40;;;;;;5051594;28;20029;-80
2022/08/12 13:30:11;;;;;;;1999.90;999.90;;;36.10;20.70;;;;;;5034367;28;20033;-80
2022/08/12 13:32:49;;;;;;;1999.90;999.90;;;36.30;20.60;;;;;;5051260;28;20286;-80
2022/08/12 13:35:15;;;;;;;1999.90;999.90;;;36.20;20.50;;;;;;5051261;28;20383;-79
2022/08/12 13:37:53;;;;;;;1999.90;999.90;;;36.10;20.60;;;;;;5034892;28;20499;-80
2022/08/12 13:40:23;;;;;;;1999.90;999.90;;;36.00;20.80;;;;;;5034589;28;20037;-80
2022/08/12 13:42:51;;;;;;;1999.90;999.90;;;35.90;20.70;;;;;;5051385;28;20071;-80
2022/08/12 13:45:17;;;;;;;1999.90;999.90;;;35.90;20.70;;;;;;5018514;28;20044;-80
2022/08/12 13:47:54;;;;;;;1999.90;999.90;;;36.20;21.20;;;;;;5034170;28;20060;-80
2022/08/12 13:50:28;;;;;;;1999.90;999.90;;;36.30;20.50;;;;;;5052574;28;20048;-80
2022/08/12 13:52:54;;;;;;;1999.90;999.90;;;36.30;20.30;;;;;;5034815;28;20048;-80
2022/08/12 13:55:21;;;;;;;1999.90;999.90;;;36.10;20.60;;;;;;5051121;28;20467;-80
2022/08/12 13:57:47;;;;;;;1999.90;999.90;;;36.20;20.50;;;;;;5050898;28;20506;-80
2022/08/12 14:00:14;;;;;;;1999.90;999.90;;;36.20;20.40;;;;;;5050124;28;20040;-80
2022/08/12 14:02:40;;;;;;;1999.90;999.90;;;36.40;20.60;;;;;;5050795;28;20108;-80
2022/08/12 14:05:08;;;;;;;1999.90;999.90;;;36.30;20.30;;;;;;5050985;28;20396;-80